sensor_id;sensor_type;location;lat;lon;timestamp;P1;durP1;ratioP1;P2;durP2;ratioP2
28519;SDS011;15732;48.534;20.382;2023-01-15T00:01:40;10.00;;;3.72;;
28519;SDS011;15732;48.534;20.382;2023-01-15T00:04:10;7.38;;;2.92;;
28519;SDS011;15732;48.534;20.382;2023-01-15T00:06:38;18.30;;;6.10;;
28519;SDS011;15732;48.534;20.382;2023-01-15T00:09:07;16.17;;;5.55;;
28519;SDS011;15732;48.534;20.382;2023-01-15T00:11:42;18.13;;;7.18;;
28519;SDS011;15732;48.534;20.382;2023-01-15T00:14:09;14.30;;;5.07;;
28519;SDS011;15732;48.534;20.382;2023-01-15T00:16:37;8.60;;;4.10;;
28519;SDS011;15732;48.534;20.382;2023-01-15T00:19:08;10.95;;;4.03;;
28519;SDS011;15732;48.534;20.382;2023-01-15T00:21:37;8.70;;;3.10;;
28519;SDS011;15732;48.534;20.382;2023-01-15T00:24:04;10.07;;;4.53;;
28519;SDS011;15732;48.534;20.382;2023-01-15T00:26:50;12.93;;;4.07;;
28519;SDS011;15732;48.534;20.382;2023-01-15T00:29:35;8.18;;;3.90;;
28519;SDS011;15732;48.534;20.382;2023-01-15T00:32:07;9.50;;;3.13;;
28519;SDS011;15732;48.534;20.382;2023-01-15T00:34:37;8.27;;;2.53;;
28519;SDS011;15732;48.534;20.382;2023-01-15T00:37:05;13.38;;;4.28;;
28519;SDS011;15732;48.534;20.382;2023-01-15T00:39:36;11.75;;;4.30;;
28519;SDS011;15732;48.534;20.382;2023-01-15T00:42:07;11.85;;;2.92;;
28519;SDS011;15732;48.534;20.382;2023-01-15T00:44:40;17.63;;;5.68;;
28519;SDS011;15732;48.534;20.382;2023-01-15T00:47:08;9.17;;;4.20;;
28519;SDS011;15732;48.534;20.382;2023-01-15T00:49:42;9.60;;;4.25;;
28519;SDS011;15732;48.534;20.382;2023-01-15T00:52:13;28.05;;;11.95;;
28519;SDS011;15732;48.534;20.382;2023-01-15T00:54:44;27.60;;;11.20;;
28519;SDS011;15732;48.534;20.382;2023-01-15T00:59:40;11.63;;;5.53;;
28519;SDS011;15732;48.534;20.382;2023-01-15T01:02:07;18.20;;;6.00;;
28519;SDS011;15732;48.534;20.382;2023-01-15T01:04:35;15.85;;;6.90;;
28519;SDS011;15732;48.534;20.382;2023-01-15T01:07:02;13.02;;;6.38;;
28519;SDS011;15732;48.534;20.382;2023-01-15T01:09:29;13.20;;;5.57;;
28519;SDS011;15732;48.534;20.382;2023-01-15T01:11:56;18.17;;;5.30;;
28519;SDS011;15732;48.534;20.382;2023-01-15T01:14:24;23.05;;;6.80;;
28519;SDS011;15732;48.534;20.382;2023-01-15T01:16:52;31.25;;;10.27;;
28519;SDS011;15732;48.534;20.382;2023-01-15T01:19:20;21.80;;;7.40;;
28519;SDS011;15732;48.534;20.382;2023-01-15T01:21:48;24.58;;;8.48;;
28519;SDS011;15732;48.534;20.382;2023-01-15T01:24:18;15.00;;;5.18;;
28519;SDS011;15732;48.534;20.382;2023-01-15T01:26:47;12.85;;;4.97;;
28519;SDS011;15732;48.534;20.382;2023-01-15T01:29:16;13.15;;;4.30;;
28519;SDS011;15732;48.534;20.382;2023-01-15T01:31:45;15.68;;;5.28;;
28519;SDS011;15732;48.534;20.382;2023-01-15T01:34:12;13.68;;;6.55;;
28519;SDS011;15732;48.534;20.382;2023-01-15T01:36:40;13.05;;;5.55;;
28519;SDS011;15732;48.534;20.382;2023-01-15T01:39:11;12.80;;;5.50;;
28519;SDS011;15732;48.534;20.382;2023-01-15T01:41:43;22.10;;;3.70;;
28519;SDS011;15732;48.534;20.382;2023-01-15T01:47:00;10.77;;;4.47;;
28519;SDS011;15732;48.534;20.382;2023-01-15T01:49:30;14.05;;;4.93;;
28519;SDS011;15732;48.534;20.382;2023-01-15T01:51:59;9.80;;;4.07;;
28519;SDS011;15732;48.534;20.382;2023-01-15T01:54:30;16.52;;;5.10;;
28519;SDS011;15732;48.534;20.382;2023-01-15T01:56:59;13.65;;;5.47;;
28519;SDS011;15732;48.534;20.382;2023-01-15T01:59:27;11.48;;;3.75;;
28519;SDS011;15732;48.534;20.382;2023-01-15T02:01:55;21.70;;;6.00;;
28519;SDS011;15732;48.534;20.382;2023-01-15T02:04:23;15.88;;;6.13;;
28519;SDS011;15732;48.534;20.382;2023-01-15T02:06:57;13.55;;;4.75;;
28519;SDS011;15732;48.534;20.382;2023-01-15T02:09:25;10.10;;;4.95;;
28519;SDS011;15732;48.534;20.382;2023-01-15T02:11:56;16.77;;;5.78;;
28519;SDS011;15732;48.534;20.382;2023-01-15T02:14:38;11.15;;;5.85;;
28519;SDS011;15732;48.534;20.382;2023-01-15T02:18:05;10.75;;;4.78;;
28519;SDS011;15732;48.534;20.382;2023-01-15T02:20:31;22.35;;;5.50;;
28519;SDS011;15732;48.534;20.382;2023-01-15T02:23:17;13.32;;;5.25;;
28519;SDS011;15732;48.534;20.382;2023-01-15T02:28:45;13.93;;;4.75;;
28519;SDS011;15732;48.534;20.382;2023-01-15T02:31:16;12.57;;;5.70;;
28519;SDS011;15732;48.534;20.382;2023-01-15T02:34:13;10.98;;;5.38;;
28519;SDS011;15732;48.534;20.382;2023-01-15T02:36:43;8.63;;;4.50;;
28519;SDS011;15732;48.534;20.382;2023-01-15T02:39:16;12.75;;;5.13;;
28519;SDS011;15732;48.534;20.382;2023-01-15T02:41:49;11.02;;;5.13;;
28519;SDS011;15732;48.534;20.382;2023-01-15T02:44:19;11.10;;;4.85;;
28519;SDS011;15732;48.534;20.382;2023-01-15T02:46:54;12.43;;;4.07;;
28519;SDS011;15732;48.534;20.382;2023-01-15T02:49:21;14.48;;;4.82;;
28519;SDS011;15732;48.534;20.382;2023-01-15T02:51:55;12.70;;;5.43;;
28519;SDS011;15732;48.534;20.382;2023-01-15T02:54:30;12.35;;;4.95;;
28519;SDS011;15732;48.534;20.382;2023-01-15T02:57:11;12.73;;;4.90;;
28519;SDS011;15732;48.534;20.382;2023-01-15T02:59:42;11.48;;;3.88;;
28519;SDS011;15732;48.534;20.382;2023-01-15T03:02:18;10.13;;;5.47;;
28519;SDS011;15732;48.534;20.382;2023-01-15T03:07:23;13.63;;;4.72;;
28519;SDS011;15732;48.534;20.382;2023-01-15T03:10:08;16.98;;;3.97;;
28519;SDS011;15732;48.534;20.382;2023-01-15T03:18:43;12.93;;;4.80;;
28519;SDS011;15732;48.534;20.382;2023-01-15T03:21:20;13.85;;;5.25;;
28519;SDS011;15732;48.534;20.382;2023-01-15T03:23:53;10.85;;;5.20;;
28519;SDS011;15732;48.534;20.382;2023-01-15T03:26:21;10.40;;;4.50;;
28519;SDS011;15732;48.534;20.382;2023-01-15T03:28:48;14.48;;;5.28;;
28519;SDS011;15732;48.534;20.382;2023-01-15T03:31:16;13.80;;;4.80;;
28519;SDS011;15732;48.534;20.382;2023-01-15T03:33:44;12.95;;;4.55;;
28519;SDS011;15732;48.534;20.382;2023-01-15T03:36:15;23.77;;;6.15;;
28519;SDS011;15732;48.534;20.382;2023-01-15T03:38:42;13.50;;;4.55;;
28519;SDS011;15732;48.534;20.382;2023-01-15T03:41:19;11.20;;;3.55;;
28519;SDS011;15732;48.534;20.382;2023-01-15T03:55:15;19.25;;;5.55;;
28519;SDS011;15732;48.534;20.382;2023-01-15T03:58:08;12.82;;;6.15;;
28519;SDS011;15732;48.534;20.382;2023-01-15T04:00:45;17.30;;;5.65;;
28519;SDS011;15732;48.534;20.382;2023-01-15T04:03:16;12.60;;;4.75;;
28519;SDS011;15732;48.534;20.382;2023-01-15T04:05:45;12.43;;;4.40;;
28519;SDS011;15732;48.534;20.382;2023-01-15T04:13:20;33.63;;;6.15;;
28519;SDS011;15732;48.534;20.382;2023-01-15T04:15:48;16.10;;;5.22;;
28519;SDS011;15732;48.534;20.382;2023-01-15T04:18:14;17.90;;;4.95;;
28519;SDS011;15732;48.534;20.382;2023-01-15T04:20:46;15.38;;;5.60;;
28519;SDS011;15732;48.534;20.382;2023-01-15T04:23:13;9.60;;;5.97;;
28519;SDS011;15732;48.534;20.382;2023-01-15T04:25:41;15.50;;;4.60;;
28519;SDS011;15732;48.534;20.382;2023-01-15T04:28:12;9.73;;;4.18;;
28519;SDS011;15732;48.534;20.382;2023-01-15T04:30:39;12.02;;;5.45;;
28519;SDS011;15732;48.534;20.382;2023-01-15T04:35:36;8.75;;;4.32;;
28519;SDS011;15732;48.534;20.382;2023-01-15T04:38:04;9.48;;;4.40;;
28519;SDS011;15732;48.534;20.382;2023-01-15T04:40:32;12.13;;;6.18;;
28519;SDS011;15732;48.534;20.382;2023-01-15T04:43:17;14.45;;;5.55;;
28519;SDS011;15732;48.534;20.382;2023-01-15T04:46:03;8.57;;;3.80;;
28519;SDS011;15732;48.534;20.382;2023-01-15T04:48:34;10.75;;;5.40;;
28519;SDS011;15732;48.534;20.382;2023-01-15T04:51:02;12.15;;;5.82;;
28519;SDS011;15732;48.534;20.382;2023-01-15T04:53:29;10.23;;;5.70;;
28519;SDS011;15732;48.534;20.382;2023-01-15T04:56:02;13.25;;;6.05;;
28519;SDS011;15732;48.534;20.382;2023-01-15T04:58:31;22.48;;;6.55;;
28519;SDS011;15732;48.534;20.382;2023-01-15T05:03:27;17.98;;;6.47;;
28519;SDS011;15732;48.534;20.382;2023-01-15T05:05:54;10.33;;;3.60;;
28519;SDS011;15732;48.534;20.382;2023-01-15T05:08:29;14.60;;;4.97;;
28519;SDS011;15732;48.534;20.382;2023-01-15T05:11:02;16.63;;;5.63;;
28519;SDS011;15732;48.534;20.382;2023-01-15T05:13:30;11.68;;;4.75;;
28519;SDS011;15732;48.534;20.382;2023-01-15T05:16:11;15.32;;;6.65;;
28519;SDS011;15732;48.534;20.382;2023-01-15T05:18:38;11.45;;;3.83;;
28519;SDS011;15732;48.534;20.382;2023-01-15T05:21:05;11.25;;;4.93;;
28519;SDS011;15732;48.534;20.382;2023-01-15T05:23:32;20.17;;;4.43;;
28519;SDS011;15732;48.534;20.382;2023-01-15T05:26:03;15.88;;;4.50;;
28519;SDS011;15732;48.534;20.382;2023-01-15T05:28:35;9.48;;;3.80;;
28519;SDS011;15732;48.534;20.382;2023-01-15T05:31:09;12.05;;;4.43;;
28519;SDS011;15732;48.534;20.382;2023-01-15T05:33:37;8.55;;;3.67;;
28519;SDS011;15732;48.534;20.382;2023-01-15T05:36:06;7.00;;;3.83;;
28519;SDS011;15732;48.534;20.382;2023-01-15T05:38:35;9.75;;;3.55;;
28519;SDS011;15732;48.534;20.382;2023-01-15T05:41:06;10.00;;;4.00;;
28519;SDS011;15732;48.534;20.382;2023-01-15T05:44:11;15.85;;;4.30;;
28519;SDS011;15732;48.534;20.382;2023-01-15T05:46:44;15.60;;;5.20;;
28519;SDS011;15732;48.534;20.382;2023-01-15T05:49:12;11.27;;;4.82;;
28519;SDS011;15732;48.534;20.382;2023-01-15T05:51:41;12.35;;;4.55;;
28519;SDS011;15732;48.534;20.382;2023-01-15T05:54:13;9.25;;;4.45;;
28519;SDS011;15732;48.534;20.382;2023-01-15T05:56:47;8.50;;;3.42;;
28519;SDS011;15732;48.534;20.382;2023-01-15T05:59:15;12.98;;;4.95;;
28519;SDS011;15732;48.534;20.382;2023-01-15T06:01:47;16.73;;;5.25;;
28519;SDS011;15732;48.534;20.382;2023-01-15T06:04:15;22.02;;;6.65;;
28519;SDS011;15732;48.534;20.382;2023-01-15T06:06:47;8.10;;;4.70;;
28519;SDS011;15732;48.534;20.382;2023-01-15T06:09:18;13.18;;;5.43;;
28519;SDS011;15732;48.534;20.382;2023-01-15T06:11:48;10.95;;;4.82;;
28519;SDS011;15732;48.534;20.382;2023-01-15T06:14:15;17.17;;;4.72;;
28519;SDS011;15732;48.534;20.382;2023-01-15T06:16:46;10.23;;;3.92;;
28519;SDS011;15732;48.534;20.382;2023-01-15T06:19:13;9.88;;;4.38;;
28519;SDS011;15732;48.534;20.382;2023-01-15T06:21:41;12.15;;;5.55;;
28519;SDS011;15732;48.534;20.382;2023-01-15T06:24:09;8.32;;;3.20;;
28519;SDS011;15732;48.534;20.382;2023-01-15T06:26:37;8.13;;;4.13;;
28519;SDS011;15732;48.534;20.382;2023-01-15T06:29:08;7.72;;;3.83;;
28519;SDS011;15732;48.534;20.382;2023-01-15T06:31:35;13.60;;;4.40;;
28519;SDS011;15732;48.534;20.382;2023-01-15T06:34:02;14.43;;;4.85;;
28519;SDS011;15732;48.534;20.382;2023-01-15T06:36:30;10.10;;;4.72;;
28519;SDS011;15732;48.534;20.382;2023-01-15T06:38:57;10.95;;;4.20;;
28519;SDS011;15732;48.534;20.382;2023-01-15T06:41:25;8.00;;;4.30;;
28519;SDS011;15732;48.534;20.382;2023-01-15T06:44:14;10.57;;;5.07;;
28519;SDS011;15732;48.534;20.382;2023-01-15T06:47:21;13.60;;;4.15;;
28519;SDS011;15732;48.534;20.382;2023-01-15T06:49:54;18.23;;;5.90;;
28519;SDS011;15732;48.534;20.382;2023-01-15T06:52:23;11.35;;;4.07;;
28519;SDS011;15732;48.534;20.382;2023-01-15T06:57:18;9.55;;;3.35;;
28519;SDS011;15732;48.534;20.382;2023-01-15T06:59:49;12.70;;;3.70;;
28519;SDS011;15732;48.534;20.382;2023-01-15T07:02:16;11.10;;;4.90;;
28519;SDS011;15732;48.534;20.382;2023-01-15T07:04:43;13.13;;;4.32;;
28519;SDS011;15732;48.534;20.382;2023-01-15T07:07:11;12.07;;;4.47;;
28519;SDS011;15732;48.534;20.382;2023-01-15T07:09:43;15.07;;;6.22;;
28519;SDS011;15732;48.534;20.382;2023-01-15T07:12:10;9.27;;;3.90;;
28519;SDS011;15732;48.534;20.382;2023-01-15T07:14:42;16.58;;;7.35;;
28519;SDS011;15732;48.534;20.382;2023-01-15T07:17:09;13.27;;;4.72;;
28519;SDS011;15732;48.534;20.382;2023-01-15T07:19:36;9.23;;;3.67;;
28519;SDS011;15732;48.534;20.382;2023-01-15T07:22:04;10.83;;;5.43;;
28519;SDS011;15732;48.534;20.382;2023-01-15T07:24:33;14.48;;;5.53;;
28519;SDS011;15732;48.534;20.382;2023-01-15T07:27:00;9.23;;;3.33;;
28519;SDS011;15732;48.534;20.382;2023-01-15T07:29:27;7.18;;;3.03;;
28519;SDS011;15732;48.534;20.382;2023-01-15T07:31:55;10.25;;;4.20;;
28519;SDS011;15732;48.534;20.382;2023-01-15T07:34:22;10.43;;;3.95;;
28519;SDS011;15732;48.534;20.382;2023-01-15T07:36:54;16.85;;;5.43;;
28519;SDS011;15732;48.534;20.382;2023-01-15T07:39:22;8.43;;;3.13;;
28519;SDS011;15732;48.534;20.382;2023-01-15T07:41:49;10.65;;;4.32;;
28519;SDS011;15732;48.534;20.382;2023-01-15T07:44:35;9.00;;;3.53;;
28519;SDS011;15732;48.534;20.382;2023-01-15T07:47:21;8.15;;;3.13;;
28519;SDS011;15732;48.534;20.382;2023-01-15T07:50:09;12.20;;;3.90;;
28519;SDS011;15732;48.534;20.382;2023-01-15T07:52:58;11.65;;;3.30;;
28519;SDS011;15732;48.534;20.382;2023-01-15T07:55:27;8.52;;;3.03;;
28519;SDS011;15732;48.534;20.382;2023-01-15T07:57:55;12.73;;;3.47;;
28519;SDS011;15732;48.534;20.382;2023-01-15T08:00:24;8.88;;;3.10;;
28519;SDS011;15732;48.534;20.382;2023-01-15T08:02:51;12.25;;;4.30;;
28519;SDS011;15732;48.534;20.382;2023-01-15T08:05:19;11.82;;;3.28;;
28519;SDS011;15732;48.534;20.382;2023-01-15T08:07:46;10.73;;;3.20;;
28519;SDS011;15732;48.534;20.382;2023-01-15T08:10:14;16.73;;;3.80;;
28519;SDS011;15732;48.534;20.382;2023-01-15T08:15:31;7.38;;;3.65;;
28519;SDS011;15732;48.534;20.382;2023-01-15T08:18:14;7.13;;;2.85;;
28519;SDS011;15732;48.534;20.382;2023-01-15T08:20:42;12.35;;;3.50;;
28519;SDS011;15732;48.534;20.382;2023-01-15T08:23:09;10.45;;;3.80;;
28519;SDS011;15732;48.534;20.382;2023-01-15T08:25:36;6.13;;;2.75;;
28519;SDS011;15732;48.534;20.382;2023-01-15T08:28:04;7.55;;;3.45;;
28519;SDS011;15732;48.534;20.382;2023-01-15T08:30:31;12.43;;;3.75;;
28519;SDS011;15732;48.534;20.382;2023-01-15T08:33:00;7.93;;;3.20;;
28519;SDS011;15732;48.534;20.382;2023-01-15T08:35:28;12.15;;;4.68;;
28519;SDS011;15732;48.534;20.382;2023-01-15T08:37:56;8.75;;;5.05;;
28519;SDS011;15732;48.534;20.382;2023-01-15T08:40:24;16.35;;;5.65;;
28519;SDS011;15732;48.534;20.382;2023-01-15T08:42:52;10.52;;;3.30;;
28519;SDS011;15732;48.534;20.382;2023-01-15T08:45:20;6.28;;;3.08;;
28519;SDS011;15732;48.534;20.382;2023-01-15T08:47:48;6.88;;;3.85;;
28519;SDS011;15732;48.534;20.382;2023-01-15T08:50:16;10.00;;;3.70;;
28519;SDS011;15732;48.534;20.382;2023-01-15T08:52:44;9.40;;;3.20;;
28519;SDS011;15732;48.534;20.382;2023-01-15T08:55:11;6.78;;;3.17;;
28519;SDS011;15732;48.534;20.382;2023-01-15T08:57:39;10.90;;;3.20;;
28519;SDS011;15732;48.534;20.382;2023-01-15T09:00:06;9.35;;;4.03;;
28519;SDS011;15732;48.534;20.382;2023-01-15T09:02:37;12.07;;;3.55;;
28519;SDS011;15732;48.534;20.382;2023-01-15T09:05:04;12.35;;;3.10;;
28519;SDS011;15732;48.534;20.382;2023-01-15T09:07:33;11.98;;;3.75;;
28519;SDS011;15732;48.534;20.382;2023-01-15T09:10:02;6.65;;;2.50;;
28519;SDS011;15732;48.534;20.382;2023-01-15T09:12:29;8.75;;;2.65;;
28519;SDS011;15732;48.534;20.382;2023-01-15T09:15:00;7.55;;;3.38;;
28519;SDS011;15732;48.534;20.382;2023-01-15T09:17:28;8.43;;;2.63;;
28519;SDS011;15732;48.534;20.382;2023-01-15T09:19:56;8.02;;;3.17;;
28519;SDS011;15732;48.534;20.382;2023-01-15T09:22:23;9.13;;;2.80;;
28519;SDS011;15732;48.534;20.382;2023-01-15T09:24:54;7.60;;;2.80;;
28519;SDS011;15732;48.534;20.382;2023-01-15T09:27:22;6.75;;;2.80;;
28519;SDS011;15732;48.534;20.382;2023-01-15T09:29:53;9.15;;;2.67;;
28519;SDS011;15732;48.534;20.382;2023-01-15T09:32:21;7.10;;;3.25;;
28519;SDS011;15732;48.534;20.382;2023-01-15T09:34:49;6.00;;;2.72;;
28519;SDS011;15732;48.534;20.382;2023-01-15T09:37:20;3.72;;;1.95;;
28519;SDS011;15732;48.534;20.382;2023-01-15T09:39:51;7.65;;;2.95;;
28519;SDS011;15732;48.534;20.382;2023-01-15T09:42:35;4.65;;;2.30;;
28519;SDS011;15732;48.534;20.382;2023-01-15T09:55:55;5.30;;;2.58;;
28519;SDS011;15732;48.534;20.382;2023-01-15T09:58:32;3.83;;;1.80;;
28519;SDS011;15732;48.534;20.382;2023-01-15T10:01:01;6.45;;;2.60;;
28519;SDS011;15732;48.534;20.382;2023-01-15T10:03:40;8.32;;;3.10;;
28519;SDS011;15732;48.534;20.382;2023-01-15T10:11:43;20.70;;;6.10;;
28519;SDS011;15732;48.534;20.382;2023-01-15T10:17:05;12.63;;;4.22;;
28519;SDS011;15732;48.534;20.382;2023-01-15T10:19:59;9.70;;;5.20;;
28519;SDS011;15732;48.534;20.382;2023-01-15T10:22:37;7.20;;;2.55;;
28519;SDS011;15732;48.534;20.382;2023-01-15T10:25:15;10.68;;;3.95;;
28519;SDS011;15732;48.534;20.382;2023-01-15T10:31:21;7.68;;;3.25;;
28519;SDS011;15732;48.534;20.382;2023-01-15T10:36:21;12.88;;;3.13;;
28519;SDS011;15732;48.534;20.382;2023-01-15T10:42:36;20.08;;;8.18;;
28519;SDS011;15732;48.534;20.382;2023-01-15T10:45:18;19.10;;;6.75;;
28519;SDS011;15732;48.534;20.382;2023-01-15T10:48:11;11.93;;;4.95;;
28519;SDS011;15732;48.534;20.382;2023-01-15T10:50:35;8.60;;;3.38;;
28519;SDS011;15732;48.534;20.382;2023-01-15T10:53:19;6.88;;;3.55;;
28519;SDS011;15732;48.534;20.382;2023-01-15T10:55:54;8.88;;;3.72;;
28519;SDS011;15732;48.534;20.382;2023-01-15T10:58:48;12.57;;;4.07;;
28519;SDS011;15732;48.534;20.382;2023-01-15T11:01:33;9.93;;;4.80;;
28519;SDS011;15732;48.534;20.382;2023-01-15T11:04:01;10.73;;;3.45;;
28519;SDS011;15732;48.534;20.382;2023-01-15T11:06:31;8.10;;;3.47;;
28519;SDS011;15732;48.534;20.382;2023-01-15T11:08:59;13.05;;;5.00;;
28519;SDS011;15732;48.534;20.382;2023-01-15T11:11:43;8.93;;;3.33;;
28519;SDS011;15732;48.534;20.382;2023-01-15T11:14:38;7.47;;;3.28;;
28519;SDS011;15732;48.534;20.382;2023-01-15T11:17:23;20.33;;;6.80;;
28519;SDS011;15732;48.534;20.382;2023-01-15T11:20:28;9.88;;;4.30;;
28519;SDS011;15732;48.534;20.382;2023-01-15T11:23:17;10.82;;;3.53;;
28519;SDS011;15732;48.534;20.382;2023-01-15T11:25:59;9.32;;;3.90;;
28519;SDS011;15732;48.534;20.382;2023-01-15T11:28:31;12.82;;;2.38;;
28519;SDS011;15732;48.534;20.382;2023-01-15T11:31:11;9.07;;;3.95;;
28519;SDS011;15732;48.534;20.382;2023-01-15T11:33:59;13.75;;;3.35;;
28519;SDS011;15732;48.534;20.382;2023-01-15T11:36:28;9.98;;;3.38;;
28519;SDS011;15732;48.534;20.382;2023-01-15T11:38:57;6.03;;;2.53;;
28519;SDS011;15732;48.534;20.382;2023-01-15T11:44:12;10.75;;;4.20;;
28519;SDS011;15732;48.534;20.382;2023-01-15T11:46:58;20.92;;;3.88;;
28519;SDS011;15732;48.534;20.382;2023-01-15T11:49:50;8.18;;;3.95;;
28519;SDS011;15732;48.534;20.382;2023-01-15T11:52:47;7.50;;;2.85;;
28519;SDS011;15732;48.534;20.382;2023-01-15T11:55:20;13.15;;;5.60;;
28519;SDS011;15732;48.534;20.382;2023-01-15T11:57:50;9.68;;;4.13;;
28519;SDS011;15732;48.534;20.382;2023-01-15T12:00:22;12.45;;;2.97;;
28519;SDS011;15732;48.534;20.382;2023-01-15T12:03:03;10.50;;;3.53;;
28519;SDS011;15732;48.534;20.382;2023-01-15T12:05:52;9.65;;;3.80;;
28519;SDS011;15732;48.534;20.382;2023-01-15T12:17:23;9.50;;;4.18;;
28519;SDS011;15732;48.534;20.382;2023-01-15T12:20:15;10.40;;;4.78;;
28519;SDS011;15732;48.534;20.382;2023-01-15T12:25:55;10.10;;;4.03;;
28519;SDS011;15732;48.534;20.382;2023-01-15T12:28:36;6.97;;;3.35;;
28519;SDS011;15732;48.534;20.382;2023-01-15T12:31:35;9.80;;;4.45;;
28519;SDS011;15732;48.534;20.382;2023-01-15T12:36:57;11.77;;;4.35;;
28519;SDS011;15732;48.534;20.382;2023-01-15T12:39:46;8.48;;;3.78;;
28519;SDS011;15732;48.534;20.382;2023-01-15T12:50:38;12.90;;;4.05;;
28519;SDS011;15732;48.534;20.382;2023-01-15T12:53:46;8.73;;;3.33;;
28519;SDS011;15732;48.534;20.382;2023-01-15T12:56:22;9.75;;;4.28;;
28519;SDS011;15732;48.534;20.382;2023-01-15T12:58:59;7.60;;;3.13;;
28519;SDS011;15732;48.534;20.382;2023-01-15T13:04:31;9.35;;;4.25;;
28519;SDS011;15732;48.534;20.382;2023-01-15T13:09:55;14.35;;;5.45;;
28519;SDS011;15732;48.534;20.382;2023-01-15T13:12:32;9.65;;;4.00;;
28519;SDS011;15732;48.534;20.382;2023-01-15T13:15:00;13.00;;;4.40;;
28519;SDS011;15732;48.534;20.382;2023-01-15T13:20:04;15.52;;;4.97;;
28519;SDS011;15732;48.534;20.382;2023-01-15T13:22:55;11.43;;;3.33;;
28519;SDS011;15732;48.534;20.382;2023-01-15T13:30:58;15.88;;;4.72;;
28519;SDS011;15732;48.534;20.382;2023-01-15T13:33:47;7.93;;;3.53;;
28519;SDS011;15732;48.534;20.382;2023-01-15T13:36:20;13.48;;;4.88;;
28519;SDS011;15732;48.534;20.382;2023-01-15T13:38:57;7.43;;;2.45;;
28519;SDS011;15732;48.534;20.382;2023-01-15T13:41:28;8.07;;;3.30;;
28519;SDS011;15732;48.534;20.382;2023-01-15T13:44:18;11.43;;;4.80;;
28519;SDS011;15732;48.534;20.382;2023-01-15T13:46:46;15.80;;;6.03;;
28519;SDS011;15732;48.534;20.382;2023-01-15T13:49:25;10.10;;;4.47;;
28519;SDS011;15732;48.534;20.382;2023-01-15T13:51:57;9.93;;;4.95;;
28519;SDS011;15732;48.534;20.382;2023-01-15T13:54:29;10.73;;;5.43;;
28519;SDS011;15732;48.534;20.382;2023-01-15T13:57:07;11.43;;;4.28;;
28519;SDS011;15732;48.534;20.382;2023-01-15T14:02:29;13.35;;;5.10;;
28519;SDS011;15732;48.534;20.382;2023-01-15T14:18:03;9.45;;;4.93;;
28519;SDS011;15732;48.534;20.382;2023-01-15T14:28:58;9.73;;;3.75;;
28519;SDS011;15732;48.534;20.382;2023-01-15T14:34:16;9.43;;;4.13;;
28519;SDS011;15732;48.534;20.382;2023-01-15T14:39:56;7.80;;;3.05;;
28519;SDS011;15732;48.534;20.382;2023-01-15T14:42:26;10.77;;;4.38;;
28519;SDS011;15732;48.534;20.382;2023-01-15T14:45:16;8.25;;;5.22;;
28519;SDS011;15732;48.534;20.382;2023-01-15T14:50:53;6.50;;;3.08;;
28519;SDS011;15732;48.534;20.382;2023-01-15T14:53:41;17.20;;;4.18;;
28519;SDS011;15732;48.534;20.382;2023-01-15T14:56:18;14.15;;;4.60;;
28519;SDS011;15732;48.534;20.382;2023-01-15T15:04:00;15.70;;;5.00;;
28519;SDS011;15732;48.534;20.382;2023-01-15T15:06:37;9.82;;;4.38;;
28519;SDS011;15732;48.534;20.382;2023-01-15T15:09:18;12.80;;;4.88;;
28519;SDS011;15732;48.534;20.382;2023-01-15T15:12:05;15.32;;;5.65;;
28519;SDS011;15732;48.534;20.382;2023-01-15T15:15:02;12.40;;;4.70;;
28519;SDS011;15732;48.534;20.382;2023-01-15T15:20:30;9.77;;;4.85;;
28519;SDS011;15732;48.534;20.382;2023-01-15T15:25:54;13.25;;;6.07;;
28519;SDS011;15732;48.534;20.382;2023-01-15T15:28:22;14.70;;;6.75;;
28519;SDS011;15732;48.534;20.382;2023-01-15T15:30:50;13.57;;;6.05;;
28519;SDS011;15732;48.534;20.382;2023-01-15T15:33:24;16.92;;;6.10;;
28519;SDS011;15732;48.534;20.382;2023-01-15T15:35:55;12.32;;;5.53;;
28519;SDS011;15732;48.534;20.382;2023-01-15T15:38:25;18.80;;;7.82;;
28519;SDS011;15732;48.534;20.382;2023-01-15T15:40:56;31.95;;;13.20;;
28519;SDS011;15732;48.534;20.382;2023-01-15T15:44:04;39.92;;;16.63;;
28519;SDS011;15732;48.534;20.382;2023-01-15T15:46:59;31.88;;;15.68;;
28519;SDS011;15732;48.534;20.382;2023-01-15T15:50:00;38.67;;;14.68;;
28519;SDS011;15732;48.534;20.382;2023-01-15T15:52:27;32.13;;;13.57;;
28519;SDS011;15732;48.534;20.382;2023-01-15T15:55:00;38.95;;;12.13;;
28519;SDS011;15732;48.534;20.382;2023-01-15T15:57:48;25.70;;;9.35;;
28519;SDS011;15732;48.534;20.382;2023-01-15T16:00:22;31.27;;;10.00;;
28519;SDS011;15732;48.534;20.382;2023-01-15T16:02:55;31.13;;;10.20;;
28519;SDS011;15732;48.534;20.382;2023-01-15T16:05:25;22.00;;;10.23;;
28519;SDS011;15732;48.534;20.382;2023-01-15T16:10:49;28.60;;;10.05;;
28519;SDS011;15732;48.534;20.382;2023-01-15T16:13:21;23.58;;;10.05;;
28519;SDS011;15732;48.534;20.382;2023-01-15T16:15:51;25.00;;;8.98;;
28519;SDS011;15732;48.534;20.382;2023-01-15T16:18:23;20.58;;;8.23;;
28519;SDS011;15732;48.534;20.382;2023-01-15T16:20:52;19.83;;;9.55;;
28519;SDS011;15732;48.534;20.382;2023-01-15T16:23:23;23.80;;;9.43;;
28519;SDS011;15732;48.534;20.382;2023-01-15T16:28:37;13.20;;;6.93;;
28519;SDS011;15732;48.534;20.382;2023-01-15T16:31:09;17.58;;;7.32;;
28519;SDS011;15732;48.534;20.382;2023-01-15T16:33:38;24.98;;;7.47;;
28519;SDS011;15732;48.534;20.382;2023-01-15T16:36:05;29.90;;;6.53;;
28519;SDS011;15732;48.534;20.382;2023-01-15T16:38:38;10.73;;;4.63;;
28519;SDS011;15732;48.534;20.382;2023-01-15T16:41:28;9.68;;;5.13;;
28519;SDS011;15732;48.534;20.382;2023-01-15T16:44:04;11.82;;;4.78;;
28519;SDS011;15732;48.534;20.382;2023-01-15T16:46:46;13.10;;;4.88;;
28519;SDS011;15732;48.534;20.382;2023-01-15T16:51:49;20.88;;;7.32;;
28519;SDS011;15732;48.534;20.382;2023-01-15T16:54:50;24.55;;;7.43;;
28519;SDS011;15732;48.534;20.382;2023-01-15T16:57:28;36.92;;;15.20;;
28519;SDS011;15732;48.534;20.382;2023-01-15T16:59:58;33.72;;;16.30;;
28519;SDS011;15732;48.534;20.382;2023-01-15T17:02:40;18.48;;;9.40;;
28519;SDS011;15732;48.534;20.382;2023-01-15T17:05:14;12.73;;;6.07;;
28519;SDS011;15732;48.534;20.382;2023-01-15T17:07:50;17.42;;;5.18;;
28519;SDS011;15732;48.534;20.382;2023-01-15T17:10:23;12.43;;;3.88;;
28519;SDS011;15732;48.534;20.382;2023-01-15T17:12:55;10.20;;;5.00;;
28519;SDS011;15732;48.534;20.382;2023-01-15T17:17:53;9.60;;;4.60;;
28519;SDS011;15732;48.534;20.382;2023-01-15T17:20:24;9.73;;;3.55;;
28519;SDS011;15732;48.534;20.382;2023-01-15T17:22:57;9.98;;;4.65;;
28519;SDS011;15732;48.534;20.382;2023-01-15T17:25:26;7.20;;;3.40;;
28519;SDS011;15732;48.534;20.382;2023-01-15T17:27:58;8.63;;;4.03;;
28519;SDS011;15732;48.534;20.382;2023-01-15T17:30:26;9.73;;;3.70;;
28519;SDS011;15732;48.534;20.382;2023-01-15T17:32:59;6.88;;;3.80;;
28519;SDS011;15732;48.534;20.382;2023-01-15T17:35:34;9.85;;;4.15;;
28519;SDS011;15732;48.534;20.382;2023-01-15T17:38:06;12.73;;;6.40;;
28519;SDS011;15732;48.534;20.382;2023-01-15T17:40:36;15.10;;;5.18;;
28519;SDS011;15732;48.534;20.382;2023-01-15T17:43:09;11.43;;;5.40;;
28519;SDS011;15732;48.534;20.382;2023-01-15T17:45:40;8.70;;;4.20;;
28519;SDS011;15732;48.534;20.382;2023-01-15T17:48:08;15.98;;;5.22;;
28519;SDS011;15732;48.534;20.382;2023-01-15T17:50:35;10.35;;;4.72;;